Time;durP1;ratioP1;P1;durP2;ratioP2;P2;SDS_P1;SDS_P2;PMS_P1;PMS_P2;Temp;Humidity;BMP_temperature;BMP_pressure;BME280_temperature;BME280_humidity;BME280_pressure;Samples;Min_cycle;Max_cycle;Signal;HPM_P1;HPM_P2
2021/03/09 00:00:22;;;;;;;21.20;13.13;;;;;;;-1.93;100.00;96210.03;1019849;29;20031;-58
2021/03/09 00:00:55;;;;;;;23.10;12.75;;;;;;;-1.95;100.00;96205.84;1019938;29;20024;-59
2021/03/09 00:01:26;;;;;;;22.15;12.95;;;;;;;-1.91;100.00;96212.56;1019874;29;20576;-59
2021/03/09 00:01:57;;;;;;;25.48;12.77;;;;;;;-1.93;100.00;96207.44;1027948;28;20031;-57
2021/03/09 00:02:28;;;;;;;21.77;12.73;;;;;;;-1.92;100.00;96210.88;1023736;29;20015;-59
2021/03/09 00:02:59;;;;;;;25.55;13.82;;;;;;;-1.92;100.00;96205.66;1019986;29;20653;-59
2021/03/09 00:03:29;;;;;;;27.27;14.35;;;;;;;-1.93;100.00;96201.41;1023844;29;20030;-59
2021/03/09 00:04:00;;;;;;;24.33;12.98;;;;;;;-1.93;100.00;96209.22;1037072;28;20776;-59
2021/03/09 00:04:31;;;;;;;23.10;13.43;;;;;;;-1.93;100.00;96201.41;1030333;28;20018;-57
2021/03/09 00:05:02;;;;;;;25.63;13.23;;;;;;;-1.95;100.00;96209.31;1026388;29;20023;-59
2021/03/09 00:05:33;;;;;;;21.02;12.82;;;;;;;-1.96;100.00;96207.63;1018219;29;20091;-58
2021/03/09 00:06:04;;;;;;;25.08;13.32;;;;;;;-1.99;100.00;96204.38;1026383;29;20246;-59
2021/03/09 00:06:35;;;;;;;26.98;14.32;;;;;;;-2.00;100.00;96208.75;1030315;28;20030;-58
2021/03/09 00:07:05;;;;;;;25.77;13.77;;;;;;;-2.00;100.00;96207.88;1034545;28;20081;-60
2021/03/09 00:07:36;;;;;;;25.05;13.48;;;;;;;-2.00;100.00;96206.13;1030486;28;20082;-60
2021/03/09 00:08:07;;;;;;;28.13;14.38;;;;;;;-2.04;100.00;96196.00;1026411;29;20477;-59
2021/03/09 00:08:37;;;;;;;34.05;13.77;;;;;;;-2.00;100.00;96202.69;1030499;28;20023;-61
2021/03/09 00:09:08;;;;;;;26.67;14.77;;;;;;;-2.01;100.00;96204.44;1030656;28;20026;-59
2021/03/09 00:09:39;;;;;;;23.35;13.27;;;;;;;-2.01;100.00;96203.63;1026531;28;20039;-59
2021/03/09 00:10:11;;;;;;;27.25;13.95;;;;;;;-2.03;100.00;96200.28;1027674;28;20015;-60
2021/03/09 00:10:41;;;;;;;23.55;14.13;;;;;;;-2.06;100.00;96195.25;1023469;28;20016;-58
2021/03/09 00:11:12;;;;;;;27.15;14.82;;;;;;;-2.04;100.00;96198.59;1023689;29;20259;-59
2021/03/09 00:11:43;;;;;;;27.38;13.40;;;;;;;-2.04;100.00;96204.63;1035864;28;20022;-56
2021/03/09 00:12:13;;;;;;;24.88;13.50;;;;;;;-2.06;100.00;96198.69;1023901;29;20285;-57
2021/03/09 00:12:44;;;;;;;23.67;13.93;;;;;;;-2.07;100.00;96199.63;1027856;28;20469;-57
2021/03/09 00:13:15;;;;;;;27.33;14.48;;;;;;;-2.06;100.00;96198.69;1027656;28;20476;-58
2021/03/09 00:13:45;;;;;;;27.05;14.00;;;;;;;-2.09;100.00;96188.47;1023623;29;20019;-57
2021/03/09 00:14:16;;;;;;;27.65;13.38;;;;;;;-2.06;100.00;96198.69;1023741;29;20108;-58
2021/03/09 00:14:47;;;;;;;23.77;13.43;;;;;;;-2.06;100.00;96203.88;1019897;28;20110;-57
2021/03/09 00:15:18;;;;;;;27.30;13.80;;;;;;;-2.06;100.00;96205.66;1023740;28;20026;-58
2021/03/09 00:15:49;;;;;;;23.20;13.27;;;;;;;-2.08;100.00;96200.56;1031879;28;20018;-59
2021/03/09 00:16:19;;;;;;;29.00;14.43;;;;;;;-2.09;100.00;96198.88;1023775;29;20030;-58
2021/03/09 00:16:50;;;;;;;27.85;14.35;;;;;;;-2.10;100.00;96208.44;1023803;28;20263;-60
2021/03/09 00:17:21;;;;;;;23.15;13.25;;;;;;;-2.12;100.00;96199.91;1023701;29;20497;-59
2021/03/09 00:17:52;;;;;;;26.13;14.18;;;;;;;-2.21;100.00;96184.84;1023878;29;20035;-59
2021/03/09 00:18:23;;;;;;;26.92;14.93;;;;;;;-2.11;100.00;96200.72;1023787;29;20290;-59
2021/03/09 00:18:53;;;;;;;29.55;15.45;;;;;;;-2.12;100.00;96199.91;1023834;29;20436;-58
2021/03/09 00:19:24;;;;;;;27.23;14.60;;;;;;;-2.18;100.00;96186.41;1019655;29;20556;-59
2021/03/09 00:19:55;;;;;;;27.40;13.82;;;;;;;-2.14;100.00;96195.72;1023750;28;20030;-55
2021/03/09 00:20:26;;;;;;;25.77;14.02;;;;;;;-2.15;100.00;96194.03;1027966;28;20640;-59
2021/03/09 00:20:57;;;;;;;25.42;14.88;;;;;;;-2.15;100.00;96194.03;1019789;29;20115;-59
2021/03/09 00:21:28;;;;;;;26.45;14.23;;;;;;;-2.17;100.00;96195.91;1027700;28;20488;-58
2021/03/09 00:21:58;;;;;;;27.83;14.50;;;;;;;-2.18;100.00;96194.22;1023876;29;20106;-57
2021/03/09 00:22:29;;;;;;;26.60;14.25;;;;;;;-2.18;100.00;96192.44;1023676;28;20266;-59
2021/03/09 00:23:00;;;;;;;26.98;14.60;;;;;;;-2.18;100.00;96192.44;1027770;28;20028;-59
2021/03/09 00:23:31;;;;;;;25.92;13.52;;;;;;;-2.19;100.00;96196.00;1023633;29;20030;-58
2021/03/09 00:24:02;;;;;;;29.10;14.40;;;;;;;-2.20;100.00;96202.13;1019626;29;20106;-58
2021/03/09 00:24:32;;;;;;;26.02;13.85;;;;;;;-2.20;100.00;96196.09;1023795;29;20070;-57
2021/03/09 00:25:04;;;;;;;28.33;14.68;;;;;;;-2.20;100.00;96202.13;1019888;29;20023;-58
2021/03/09 00:25:34;;;;;;;23.90;13.27;;;;;;;-2.21;100.00;96203.06;1019798;29;20012;-61
2021/03/09 00:26:05;;;;;;;23.42;13.70;;;;;;;-2.22;100.00;96198.78;1023726;29;20251;-59
2021/03/09 00:26:36;;;;;;;25.20;14.55;;;;;;;-2.22;100.00;96201.38;1027832;28;20090;-59
2021/03/09 00:27:09;;;;;;;25.35;14.00;;;;;;;-2.23;100.00;96202.31;1027688;28;20015;-58
2021/03/09 00:27:40;;;;;;;28.63;15.13;;;;;;;-2.29;100.00;96192.28;1035663;28;20022;-58
2021/03/09 00:28:11;;;;;;;30.63;15.68;;;;;;;-2.23;100.00;96197.13;1028015;28;20262;-58
2021/03/09 00:28:41;;;;;;;27.88;15.13;;;;;;;-2.25;100.00;96209.34;1028069;28;20038;-60
2021/03/09 00:29:12;;;;;;;29.52;15.68;;;;;;;-2.25;100.00;96206.75;1023925;28;20121;-58
2021/03/09 00:29:43;;;;;;;29.08;15.50;;;;;;;-2.27;100.00;96203.41;1027928;28;20015;-58
2021/03/09 00:30:15;;;;;;;26.98;14.95;;;;;;;-2.25;100.00;96204.16;1032181;28;20755;-58
2021/03/09 00:30:46;;;;;;;28.02;14.90;;;;;;;-2.25;100.00;96198.13;1028370;28;20124;-58
2021/03/09 00:31:17;;;;;;;26.70;14.77;;;;;;;-2.25;100.00;96209.34;1020489;29;20319;-58
2021/03/09 00:31:49;;;;;;;30.08;15.70;;;;;;;-2.24;100.00;96197.22;1015971;29;20252;-57
2021/03/09 00:32:19;;;;;;;26.85;15.65;;;;;;;-2.24;100.00;96203.22;1028130;28;20105;-57
2021/03/09 00:32:50;;;;;;;28.83;15.95;;;;;;;-2.25;100.00;96198.13;1028260;28;20268;-57
2021/03/09 00:33:21;;;;;;;27.65;16.08;;;;;;;-2.24;100.00;96202.41;1027934;28;20019;-59
2021/03/09 00:33:52;;;;;;;26.92;15.85;;;;;;;-2.24;100.00;96199.81;1027513;28;20023;-59
2021/03/09 00:34:22;;;;;;;25.27;14.80;;;;;;;-2.25;100.00;96200.72;1027694;28;20612;-58
2021/03/09 00:34:53;;;;;;;27.92;15.27;;;;;;;-2.26;100.00;96197.28;1015907;28;20117;-58
2021/03/09 00:35:24;;;;;;;30.65;15.80;;;;;;;-2.26;100.00;96197.28;1027700;28;20029;-58
2021/03/09 00:35:55;;;;;;;28.15;15.20;;;;;;;-2.26;100.00;96194.69;1027579;28;20412;-59
2021/03/09 00:36:26;;;;;;;27.85;15.70;;;;;;;-2.27;100.00;96198.22;1023757;28;20274;-59
2021/03/09 00:36:57;;;;;;;29.90;16.17;;;;;;;-2.28;100.00;96194.78;1023769;29;20254;-60
2021/03/09 00:37:27;;;;;;;30.52;15.85;;;;;;;-2.28;100.00;96194.78;1027865;28;20094;-58
2021/03/09 00:37:58;;;;;;;35.28;16.05;;;;;;;-2.29;100.00;96198.28;1027679;28;20448;-56
2021/03/09 00:38:29;;;;;;;31.05;15.65;;;;;;;-2.29;100.00;96198.28;1023911;28;20020;-60
2021/03/09 00:39:00;;;;;;;33.03;16.25;;;;;;;-2.38;100.00;96177.22;1031782;28;20022;-59
2021/03/09 00:39:31;;;;;;;29.73;16.08;;;;;;;-2.30;100.00;96195.78;1019784;29;20042;-58
2021/03/09 00:40:02;;;;;;;29.02;15.43;;;;;;;-2.30;100.00;96195.78;1023714;29;20448;-57
2021/03/09 00:40:33;;;;;;;28.50;15.07;;;;;;;-2.32;100.00;96193.28;1027759;28;20247;-63
2021/03/09 00:41:04;;;;;;;31.40;16.10;;;;;;;-2.33;100.00;96188.19;1019735;29;20757;-59
2021/03/09 00:41:34;;;;;;;27.13;15.23;;;;;;;-2.33;100.00;96196.00;1027641;28;20420;-59
2021/03/09 00:42:06;;;;;;;27.98;14.57;;;;;;;-2.33;100.00;96194.22;1023551;29;20031;-60
2021/03/09 00:42:40;;;;;;;27.77;15.30;;;;;;;-2.36;100.00;96188.38;1019992;29;20032;-58
2021/03/09 00:43:11;;;;;;;31.13;15.15;;;;;;;-2.37;100.00;96189.28;1036202;23;20338;-58
2021/03/09 00:43:42;;;;;;;33.25;16.17;;;;;;;-2.38;100.00;96192.81;1030634;28;20767;-55
2021/03/09 00:44:13;;;;;;;31.13;15.30;;;;;;;-2.38;100.00;96198.03;1031501;28;20591;-53
2021/03/09 00:44:44;;;;;;;27.58;14.75;;;;;;;-2.41;100.00;96191.22;1023659;28;20497;-56
2021/03/09 00:45:15;;;;;;;26.35;14.65;;;;;;;-2.41;100.00;96193.81;1023611;29;20262;-55
2021/03/09 00:45:46;;;;;;;26.88;14.45;;;;;;;-2.42;100.00;96191.31;1023681;29;20019;-57
2021/03/09 00:46:17;;;;;;;26.85;14.32;;;;;;;-2.40;100.00;96192.06;1019701;29;20015;-56
2021/03/09 00:46:49;;;;;;;26.80;15.25;;;;;;;-2.43;100.00;96190.47;1027632;28;20027;-56
2021/03/09 00:47:20;;;;;;;27.15;14.45;;;;;;;-2.43;100.00;96189.66;1027632;28;20014;-56
2021/03/09 00:47:51;;;;;;;28.52;14.68;;;;;;;-2.42;100.00;96199.09;1015833;29;20288;-56
2021/03/09 00:48:22;;;;;;;23.67;14.02;;;;;;;-2.42;100.00;96192.16;1015847;29;20016;-57
2021/03/09 00:48:52;;;;;;;27.85;15.60;;;;;;;-2.44;100.00;96187.97;1015784;29;20025;-57
2021/03/09 00:49:23;;;;;;;28.65;15.27;;;;;;;-2.44;100.00;96185.38;1019671;29;20095;-56
2021/03/09 00:49:54;;;;;;;26.05;14.45;;;;;;;-2.45;100.00;96189.75;1023690;29;20531;-57
2021/03/09 00:50:25;;;;;;;26.80;14.70;;;;;;;-2.43;100.00;96187.06;1027753;28;20019;-56
2021/03/09 00:50:56;;;;;;;26.88;13.82;;;;;;;-2.44;100.00;96182.75;1023775;28;20823;-56
2021/03/09 00:51:27;;;;;;;30.67;15.30;;;;;;;-2.45;100.00;96186.31;1019512;29;20020;-56
2021/03/09 00:51:58;;;;;;;27.15;16.00;;;;;;;-2.47;100.00;96184.63;1023676;29;20039;-55
2021/03/09 00:52:28;;;;;;;27.35;15.55;;;;;;;-2.47;100.00;96189.81;1015805;29;20019;-56
2021/03/09 00:52:59;;;;;;;29.25;13.98;;;;;;;-2.50;100.00;96182.19;1023583;29;20027;-57
2021/03/09 00:53:30;;;;;;;28.85;15.15;;;;;;;-2.47;100.00;96186.41;1015580;29;20039;-57
2021/03/09 00:54:00;;;;;;;29.38;15.55;;;;;;;-2.50;100.00;96190.00;1019638;29;20035;-56
2021/03/09 00:54:31;;;;;;;26.67;14.32;;;;;;;-2.49;100.00;96183.88;1011994;29;20052;-55
2021/03/09 00:55:02;;;;;;;28.38;15.32;;;;;;;-2.49;100.00;96177.81;1015846;29;20457;-55
2021/03/09 00:55:33;;;;;;;27.10;14.07;;;;;;;-2.58;100.00;96165.38;1015661;29;20486;-54
2021/03/09 00:56:04;;;;;;;29.08;15.23;;;;;;;-2.50;100.00;96174.41;1011895;29;20119;-55
2021/03/09 00:56:35;;;;;;;32.58;15.95;;;;;;;-2.51;100.00;96179.69;1015755;29;20047;-56
2021/03/09 00:57:06;;;;;;;26.25;14.82;;;;;;;-2.52;100.00;96176.25;1015768;29;20288;-57
2021/03/09 00:57:37;;;;;;;30.40;14.38;;;;;;;-2.53;100.00;96179.78;1011753;29;20766;-56
2021/03/09 00:58:08;;;;;;;27.60;15.05;;;;;;;-2.52;100.00;96173.66;1015749;29;20260;-55
2021/03/09 00:58:39;;;;;;;28.33;16.25;;;;;;;-2.63;100.00;96160.47;1015769;29;20020;-55
2021/03/09 00:59:09;;;;;;;33.33;15.50;;;;;;;-2.53;100.00;96177.19;1015804;29;20064;-55
2021/03/09 00:59:40;;;;;;;30.00;15.40;;;;;;;-2.54;100.00;96175.53;1019598;29;20163;-55
2021/03/09 01:00:11;;;;;;;26.80;14.50;;;;;;;-2.54;100.00;96172.91;1015908;29;20020;-55
2021/03/09 01:00:42;;;;;;;25.63;14.68;;;;;;;-2.56;100.00;96176.50;1019766;29;20158;-57
2021/03/09 01:01:13;;;;;;;27.35;14.23;;;;;;;-2.55;100.00;96175.59;1019729;28;20263;-56
2021/03/09 01:01:44;;;;;;;25.42;13.73;;;;;;;-2.60;100.00;96162.03;1023637;28;20050;-56
2021/03/09 01:02:14;;;;;;;26.35;14.85;;;;;;;-2.56;100.00;96176.50;1019727;29;20504;-56
2021/03/09 01:02:45;;;;;;;23.77;13.70;;;;;;;-2.56;100.00;96173.91;1019724;29;20015;-55
2021/03/09 01:03:16;;;;;;;27.83;13.85;;;;;;;-2.56;100.00;96179.97;1023598;29;20027;-55
2021/03/09 01:03:46;;;;;;;31.70;14.35;;;;;;;-2.56;100.00;96174.78;1019469;28;20091;-56
2021/03/09 01:04:17;;;;;;;28.55;14.43;;;;;;;-2.56;100.00;96169.56;1027629;28;20484;-55
2021/03/09 01:04:48;;;;;;;28.20;15.20;;;;;;;-2.56;100.00;96179.13;1027630;28;20231;-56
2021/03/09 01:05:19;;;;;;;25.48;14.13;;;;;;;-2.55;100.00;96178.19;1027693;28;20061;-57
2021/03/09 01:05:49;;;;;;;26.30;14.75;;;;;;;-2.54;100.00;96172.91;1023477;28;20023;-55
2021/03/09 01:06:20;;;;;;;28.20;15.25;;;;;;;-2.57;100.00;96173.09;1023869;29;20071;-55
2021/03/09 01:06:51;;;;;;;29.58;15.25;;;;;;;-2.56;100.00;96169.56;1019933;29;20031;-56
2021/03/09 01:07:21;;;;;;;24.35;13.95;;;;;;;-2.55;100.00;96173.84;1016076;29;20167;-56
2021/03/09 01:07:52;;;;;;;26.40;13.95;;;;;;;-2.55;100.00;96175.59;1020057;29;20127;-57
2021/03/09 01:08:23;;;;;;;27.20;14.95;;;;;;;-2.66;100.00;96158.03;1020171;29;20020;-56
2021/03/09 01:08:54;;;;;;;25.20;13.80;;;;;;;-2.57;100.00;96173.09;1019983;29;20104;-55
2021/03/09 01:09:24;;;;;;;31.00;16.23;;;;;;;-2.56;100.00;96174.78;1020113;29;20071;-56
2021/03/09 01:09:55;;;;;;;27.83;14.35;;;;;;;-2.56;100.00;96174.78;1012339;29;20499;-55
2021/03/09 01:10:26;;;;;;;26.30;14.57;;;;;;;-2.55;100.00;96173.00;1012426;29;20049;-55
2021/03/09 01:10:57;;;;;;;25.45;13.77;;;;;;;-2.57;100.00;96173.09;1011907;29;20546;-56
2021/03/09 01:11:28;;;;;;;26.17;14.02;;;;;;;-2.58;100.00;96170.56;1011890;29;20257;-56
2021/03/09 01:11:58;;;;;;;28.92;14.13;;;;;;;-2.59;100.00;96174.94;1015764;29;20024;-55
2021/03/09 01:12:29;;;;;;;26.65;14.80;;;;;;;-2.60;100.00;96167.25;1023684;28;20107;-56
2021/03/09 01:13:00;;;;;;;28.20;14.40;;;;;;;-2.61;100.00;96169.00;1015629;29;20024;-56
2021/03/09 01:13:31;;;;;;;28.27;16.35;;;;;;;-2.62;100.00;96169.91;1015669;29;20594;-55
2021/03/09 01:14:02;;;;;;;27.13;14.07;;;;;;;-2.61;100.00;96173.34;1019679;29;20071;-55
2021/03/09 01:14:33;;;;;;;28.80;15.18;;;;;;;-2.62;100.00;96169.09;1019736;29;20462;-57
2021/03/09 01:15:05;;;;;;;26.98;14.95;;;;;;;-2.63;100.00;96168.28;1019639;28;20318;-56
2021/03/09 01:15:35;;;;;;;27.40;14.57;;;;;;;-2.64;100.00;96169.19;1015807;29;20031;-56
2021/03/09 01:16:06;;;;;;;26.25;14.38;;;;;;;-2.65;100.00;96172.69;1019696;29;20247;-56
2021/03/09 01:16:37;;;;;;;28.45;13.80;;;;;;;-2.64;100.00;96163.97;1015652;29;20020;-56
2021/03/09 01:17:08;;;;;;;27.15;14.35;;;;;;;-2.63;100.00;96172.59;1019736;29;20027;-55
2021/03/09 01:17:38;;;;;;;32.47;15.77;;;;;;;-2.64;100.00;96166.59;1015864;29;20020;-56
2021/03/09 01:18:09;;;;;;;30.65;17.02;;;;;;;-2.65;100.00;96170.09;1023682;29;20027;-57
2021/03/09 01:18:40;;;;;;;32.15;15.30;;;;;;;-2.64;100.00;96168.34;1019522;29;20027;-55
2021/03/09 01:19:10;;;;;;;31.42;15.95;;;;;;;-2.64;100.00;96166.59;1019664;29;20071;-55
2021/03/09 01:19:41;;;;;;;30.25;16.40;;;;;;;-2.64;100.00;96166.59;1011916;29;20056;-56
2021/03/09 01:20:12;;;;;;;32.08;16.02;;;;;;;-2.64;100.00;96163.97;1027578;28;20014;-56
2021/03/09 01:20:43;;;;;;;32.10;16.58;;;;;;;-2.65;100.00;96170.09;1023554;29;20496;-58
2021/03/09 01:21:14;;;;;;;31.20;17.23;;;;;;;-2.68;100.00;96165.94;1019740;29;20248;-56
2021/03/09 01:21:44;;;;;;;30.30;15.90;;;;;;;-2.77;100.00;96155.22;1019699;29;20352;-56
2021/03/09 01:22:15;;;;;;;31.38;17.58;;;;;;;-2.69;100.00;96166.00;1019688;29;20024;-57
2021/03/09 01:22:46;;;;;;;30.77;15.93;;;;;;;-2.68;100.00;96165.09;1016047;29;20028;-55
2021/03/09 01:23:17;;;;;;;29.85;16.70;;;;;;;-2.65;100.00;96167.50;1016505;29;20167;-55
2021/03/09 01:23:47;;;;;;;29.48;15.82;;;;;;;-2.65;100.00;96167.50;1012456;29;20020;-56
2021/03/09 01:24:18;;;;;;;31.88;16.40;;;;;;;-2.66;100.00;96163.25;1016452;29;20035;-56
2021/03/09 01:24:48;;;;;;;31.75;16.33;;;;;;;-2.65;100.00;96164.91;1024419;28;20042;-55
2021/03/09 01:25:19;;;;;;;34.75;16.33;;;;;;;-2.65;100.00;96159.69;1024539;29;20070;-56
2021/03/09 01:25:50;;;;;;;36.80;17.52;;;;;;;-2.65;100.00;96162.28;1020466;29;20011;-56
2021/03/09 01:26:21;;;;;;;29.20;15.95;;;;;;;-2.66;100.00;96164.06;1016532;29;20016;-55
2021/03/09 01:26:51;;;;;;;34.30;15.50;;;;;;;-2.65;100.00;96162.28;1016478;29;20059;-55
2021/03/09 01:27:22;;;;;;;34.63;17.10;;;;;;;-2.68;100.00;96165.94;1030157;28;20018;-55
2021/03/09 01:27:53;;;;;;;32.17;16.08;;;;;;;-2.69;100.00;96158.22;1020419;29;20031;-55
2021/03/09 01:28:24;;;;;;;33.08;17.33;;;;;;;-2.69;100.00;96153.84;1028475;28;20014;-55
2021/03/09 01:28:55;;;;;;;31.25;16.40;;;;;;;-2.71;100.00;96152.28;1016385;29;20052;-56
2021/03/09 01:29:26;;;;;;;31.20;16.83;;;;;;;-2.69;100.00;96156.44;1020422;28;20276;-56
2021/03/09 01:29:57;;;;;;;32.45;17.08;;;;;;;-2.68;100.00;96154.69;1028446;28;20038;-56
2021/03/09 01:30:27;;;;;;;30.13;15.00;;;;;;;-2.69;100.00;96153.84;1024643;29;20015;-56
2021/03/09 01:30:58;;;;;;;30.58;16.02;;;;;;;-2.70;100.00;96151.34;1024314;29;20477;-56
2021/03/09 01:31:29;;;;;;;30.13;15.68;;;;;;;-2.68;100.00;96154.69;1032571;28;20478;-55
2021/03/09 01:31:59;;;;;;;29.88;14.98;;;;;;;-2.69;100.00;96147.81;1028375;28;20477;-57
2021/03/09 01:32:30;;;;;;;28.02;15.02;;;;;;;-2.69;100.00;96150.41;1028296;28;20073;-56
2021/03/09 01:33:01;;;;;;;28.88;15.27;;;;;;;-2.69;100.00;96153.00;1028190;28;20027;-56
2021/03/09 01:33:31;;;;;;;27.80;16.58;;;;;;;-2.71;100.00;96147.06;1024183;29;20043;-57
2021/03/09 01:34:02;;;;;;;27.63;15.88;;;;;;;-2.73;100.00;96146.34;1028345;28;20015;-55
2021/03/09 01:34:33;;;;;;;28.67;15.70;;;;;;;-2.75;100.00;96148.16;1016494;28;20055;-56
2021/03/09 01:35:04;;;;;;;26.63;14.95;;;;;;;-2.73;100.00;96141.13;1020290;29;20064;-57
2021/03/09 01:35:35;;;;;;;28.70;16.17;;;;;;;-2.75;100.00;96143.81;1016477;29;20051;-56
2021/03/09 01:36:07;;;;;;;28.00;14.65;;;;;;;-2.73;100.00;96143.75;1028332;28;20261;-56
2021/03/09 01:36:38;;;;;;;32.55;15.95;;;;;;;-2.74;100.00;96144.66;1032376;28;20281;-56
2021/03/09 01:37:08;;;;;;;32.28;16.10;;;;;;;-2.85;100.00;96127.91;1020304;29;20289;-56
2021/03/09 01:37:39;;;;;;;30.35;16.25;;;;;;;-2.77;100.00;96140.47;1020426;29;20206;-56
2021/03/09 01:38:10;;;;;;;31.30;16.27;;;;;;;-2.77;100.00;96139.63;1012553;29;20107;-56
2021/03/09 01:38:40;;;;;;;33.65;18.08;;;;;;;-2.76;100.00;96136.13;1020394;29;20026;-56
2021/03/09 01:39:12;;;;;;;32.45;16.58;;;;;;;-2.76;100.00;96142.13;1020491;28;20028;-55
2021/03/09 01:39:43;;;;;;;29.80;15.98;;;;;;;-2.82;100.00;96126.06;1032308;28;20022;-55
2021/03/09 01:40:14;;;;;;;32.00;16.40;;;;;;;-2.71;100.00;96142.72;1020365;29;20263;-56
2021/03/09 01:40:44;;;;;;;26.83;15.07;;;;;;;-2.69;100.00;96137.41;1020421;28;20071;-56
2021/03/09 01:41:15;;;;;;;29.30;15.05;;;;;;;-2.69;100.00;96143.44;1032428;28;20018;-56
2021/03/09 01:41:46;;;;;;;27.60;15.13;;;;;;;-2.69;100.00;96142.63;1024329;28;20020;-55
2021/03/09 01:42:16;;;;;;;30.45;15.90;;;;;;;-2.71;100.00;96142.72;1024486;28;20078;-54
2021/03/09 01:42:47;;;;;;;28.17;15.93;;;;;;;-2.71;100.00;96139.28;1020285;29;20462;-55
2021/03/09 01:43:18;;;;;;;32.35;16.35;;;;;;;-2.70;100.00;96144.41;1028169;28;20026;-56
2021/03/09 01:43:49;;;;;;;29.10;15.52;;;;;;;-2.72;100.00;96143.63;1016376;28;20031;-55
2021/03/09 01:44:20;;;;;;;33.00;16.52;;;;;;;-2.70;100.00;96135.75;1032404;28;20379;-55
2021/03/09 01:44:51;;;;;;;28.13;15.25;;;;;;;-2.70;100.00;96135.75;1024428;28;20751;-55
2021/03/09 01:45:21;;;;;;;30.25;16.52;;;;;;;-2.70;100.00;96135.75;1028264;28;20035;-56
2021/03/09 01:45:52;;;;;;;30.15;15.02;;;;;;;-2.71;100.00;96144.47;1028383;28;20075;-57
2021/03/09 01:46:23;;;;;;;29.55;15.73;;;;;;;-2.74;100.00;96139.44;1024331;28;20023;-56
2021/03/09 01:46:54;;;;;;;35.47;16.98;;;;;;;-2.76;100.00;96133.50;1024253;29;20110;-56
2021/03/09 01:47:25;;;;;;;33.78;18.15;;;;;;;-2.76;100.00;96134.34;1028367;28;20026;-56
2021/03/09 01:47:59;;;;;;;35.30;17.73;;;;;;;-2.77;100.00;96135.28;1020468;28;20271;-56
2021/03/09 01:48:34;;;;;;;31.48;16.77;;;;;;;-2.78;100.00;96133.59;1028383;28;20087;-55
2021/03/09 01:49:05;;;;;;;26.65;15.18;;;;;;;-2.78;100.00;96132.78;1025580;28;20763;-57
2021/03/09 01:49:37;;;;;;;31.42;16.85;;;;;;;-2.78;100.00;96133.59;1017544;29;20268;-56
2021/03/09 01:50:09;;;;;;;33.50;16.77;;;;;;;-2.78;100.00;96137.97;1012582;29;20059;-56
2021/03/09 01:50:42;;;;;;;31.17;16.13;;;;;;;-2.77;100.00;96137.03;1012515;29;20256;-55
2021/03/09 01:51:16;;;;;;;31.30;16.08;;;;;;;-2.89;100.00;96120.38;1024332;28;20259;-56
2021/03/09 01:51:48;;;;;;;31.52;16.30;;;;;;;-2.78;100.00;96130.16;1024227;28;20760;-56
2021/03/09 01:52:19;;;;;;;31.27;16.55;;;;;;;-2.79;100.00;96133.69;1028236;28;20349;-55
2021/03/09 01:52:49;;;;;;;34.38;17.60;;;;;;;-2.81;100.00;96131.16;1032202;28;20851;-56
2021/03/09 01:53:20;;;;;;;34.25;16.70;;;;;;;-2.81;100.00;96131.16;1020403;28;20114;-55
2021/03/09 01:53:51;;;;;;;30.70;15.93;;;;;;;-2.80;100.00;96130.25;1027968;28;20027;-56
2021/03/09 01:54:22;;;;;;;33.55;17.65;;;;;;;-2.80;100.00;96130.25;1024351;29;20259;-55
2021/03/09 01:54:53;;;;;;;31.70;16.15;;;;;;;-2.82;100.00;96126.91;1024341;29;20113;-57
2021/03/09 01:55:23;;;;;;;30.10;16.08;;;;;;;-2.81;100.00;96125.16;1020391;29;20031;-56
2021/03/09 01:55:55;;;;;;;28.85;16.73;;;;;;;-2.81;100.00;96123.38;1024214;28;20038;-56
2021/03/09 01:56:27;;;;;;;30.58;15.88;;;;;;;-2.80;100.00;96124.22;1024384;28;20020;-56
2021/03/09 01:56:58;;;;;;;31.55;16.88;;;;;;;-2.80;100.00;96124.22;1024314;29;20330;-55
2021/03/09 01:57:28;;;;;;;33.85;16.60;;;;;;;-2.80;100.00;96119.88;1028299;28;20336;-57
2021/03/09 01:58:02;;;;;;;33.13;16.42;;;;;;;-2.80;100.00;96122.47;1020216;29;20429;-55
2021/03/09 01:58:33;;;;;;;31.08;16.20;;;;;;;-2.79;100.00;96118.09;1016421;29;20474;-56
2021/03/09 01:59:04;;;;;;;35.90;16.73;;;;;;;-2.79;100.00;96120.69;1024310;28;20337;-55
2021/03/09 01:59:36;;;;;;;32.50;16.27;;;;;;;-2.81;100.00;96110.38;1032324;28;20026;-56
2021/03/09 02:00:07;;;;;;;36.97;16.33;;;;;;;-2.80;100.00;96116.41;1024161;29;20110;-56
2021/03/09 02:00:39;;;;;;;34.03;16.58;;;;;;;-2.80;100.00;96113.81;1032169;28;20249;-55
2021/03/09 02:01:10;;;;;;;30.92;16.23;;;;;;;-2.80;100.00;96114.66;1020299;28;20331;-56
2021/03/09 02:01:40;;;;;;;32.72;16.80;;;;;;;-2.80;100.00;96116.41;1020330;29;20252;-56
2021/03/09 02:02:11;;;;;;;33.42;17.42;;;;;;;-2.80;100.00;96113.81;1024185;29;20082;-56
2021/03/09 02:02:42;;;;;;;31.92;17.90;;;;;;;-2.80;100.00;96119.88;1020338;28;20020;-56
2021/03/09 02:03:12;;;;;;;32.55;16.98;;;;;;;-2.80;100.00;96119.88;1024139;28;20027;-56
2021/03/09 02:03:43;;;;;;;34.47;17.63;;;;;;;-2.79;100.00;96118.09;1024106;29;20501;-55
2021/03/09 02:04:14;;;;;;;35.83;17.80;;;;;;;-2.80;100.00;96114.66;1028204;28;20043;-56
2021/03/09 02:04:45;;;;;;;34.45;17.27;;;;;;;-2.95;100.00;96098.19;1024271;29;20264;-56
2021/03/09 02:05:16;;;;;;;33.08;17.25;;;;;;;-2.79;100.00;96115.50;1020295;29;20015;-55
2021/03/09 02:05:46;;;;;;;33.72;16.88;;;;;;;-2.79;100.00;96116.31;1020277;28;20019;-55
2021/03/09 02:06:17;;;;;;;34.45;17.08;;;;;;;-2.78;100.00;96118.00;1024060;28;20263;-56
2021/03/09 02:06:48;;;;;;;33.25;16.95;;;;;;;-2.79;100.00;96113.72;1024207;29;20026;-56
2021/03/09 02:07:19;;;;;;;32.65;17.20;;;;;;;-2.77;100.00;96118.84;1028241;28;20186;-56
2021/03/09 02:07:49;;;;;;;33.95;19.20;;;;;;;-2.77;100.00;96113.63;1028203;28;20026;-56
2021/03/09 02:08:20;;;;;;;30.50;17.20;;;;;;;-2.80;100.00;96113.81;1020165;29;20482;-56
2021/03/09 02:08:51;;;;;;;31.73;17.15;;;;;;;-2.77;100.00;96117.09;1024243;29;20404;-56
2021/03/09 02:09:22;;;;;;;36.08;18.25;;;;;;;-2.75;100.00;96116.97;1024410;28;20469;-56
2021/03/09 02:09:53;;;;;;;35.22;17.73;;;;;;;-2.76;100.00;96110.94;1016390;28;20024;-56
2021/03/09 02:10:24;;;;;;;33.70;17.38;;;;;;;-2.74;100.00;96111.69;1020193;29;20047;-56
2021/03/09 02:10:54;;;;;;;36.90;16.77;;;;;;;-2.73;100.00;96112.56;1020252;29;20275;-55
2021/03/09 02:11:31;;;;;;;33.08;17.83;;;;;;;-2.73;100.00;96105.59;1020131;29;20067;-56
2021/03/09 02:12:21;;;;;;;33.72;18.00;;;;;;;-2.72;100.00;96112.44;1016361;29;20022;-55
2021/03/09 02:13:06;;;;;;;33.35;17.27;;;;;;;-2.76;100.00;96107.53;1028077;28;20281;-56
2021/03/09 02:13:45;;;;;;;37.30;17.13;;;;;;;-2.73;100.00;96102.97;1024464;28;20262;-55
2021/03/09 02:14:32;;;;;;;34.13;17.60;;;;;;;-2.71;100.00;96108.09;1020396;29;20614;-56
2021/03/09 02:15:14;;;;;;;32.80;16.75;;;;;;;-2.71;100.00;96102.91;1028322;28;20527;-55
2021/03/09 02:16:05;;;;;;;35.90;18.35;;;;;;;-2.73;100.00;96108.19;1028216;28;20512;-55
2021/03/09 02:16:43;;;;;;;36.80;18.10;;;;;;;-2.73;100.00;96108.19;1031835;28;20254;-57
2021/03/09 02:17:26;;;;;;;33.85;17.20;;;;;;;-2.71;100.00;96108.09;1028245;28;20270;-56
2021/03/09 02:18:00;;;;;;;34.63;17.02;;;;;;;-2.71;100.00;96108.09;1036241;28;20268;-56
2021/03/09 02:18:42;;;;;;;34.28;17.77;;;;;;;-2.70;100.00;96100.22;1028189;28;20313;-55
2021/03/09 02:19:33;;;;;;;35.05;17.90;;;;;;;-2.70;100.00;96105.41;1020265;29;20263;-56
2021/03/09 02:20:13;;;;;;;33.17;17.10;;;;;;;-2.71;100.00;96113.28;1024649;28;20295;-55
2021/03/09 02:20:58;;;;;;;;;;;;;;;-2.71;100.00;96108.09;1032576;28;20257;-57
2021/03/09 02:21:49;;;;;;;33.60;15.50;;;;;;;-2.72;100.00;96106.41;1035670;28;19927;-55
2021/03/09 02:22:33;;;;;;;33.17;16.27;;;;;;;-2.75;100.00;96103.97;1027572;28;20318;-56
2021/03/09 02:23:07;;;;;;;36.08;17.40;;;;;;;-2.76;100.00;96103.16;1028059;28;20306;-56
2021/03/09 02:23:57;;;;;;;38.95;17.45;;;;;;;-2.77;100.00;96100.66;1028016;28;20261;-53
2021/03/09 02:24:36;;;;;;;39.80;17.60;;;;;;;-2.78;100.00;96102.41;1024149;29;20259;-56